createdAt,value
2023-02-19T00:00:41.229Z,29.60
2023-02-19T00:01:41.227Z,30.10
2023-02-19T00:02:41.245Z,29.40
2023-02-19T00:03:41.326Z,30.00
2023-02-19T00:04:41.241Z,30.70
2023-02-19T00:05:41.214Z,30.60
2023-02-19T00:06:41.208Z,30.30
2023-02-19T00:07:41.206Z,31.00
2023-02-19T00:08:41.201Z,30.90
2023-02-19T00:09:41.196Z,30.70
2023-02-19T00:10:41.196Z,31.10
2023-02-19T00:11:41.197Z,31.50
2023-02-19T00:12:41.188Z,31.10
2023-02-19T00:13:41.187Z,31.10
2023-02-19T00:14:41.182Z,31.50
2023-02-19T00:15:41.209Z,30.90
2023-02-19T00:16:41.180Z,30.50
2023-02-19T00:17:41.171Z,31.00
2023-02-19T00:18:41.196Z,31.50
2023-02-19T00:19:41.165Z,30.60
2023-02-19T00:20:41.162Z,31.20
2023-02-19T00:21:41.156Z,31.60
2023-02-19T00:22:41.167Z,30.60
2023-02-19T00:23:41.147Z,31.60
2023-02-19T00:24:41.154Z,30.80
2023-02-19T00:25:41.141Z,32.00
2023-02-19T00:26:41.149Z,31.40
2023-02-19T00:27:41.142Z,30.30
2023-02-19T00:28:41.139Z,30.50
2023-02-19T00:29:41.134Z,31.00
2023-02-19T00:30:41.132Z,31.80
2023-02-19T00:31:41.264Z,30.60
2023-02-19T00:32:41.125Z,30.80
2023-02-19T00:33:41.120Z,31.10
2023-02-19T00:34:41.145Z,31.00
2023-02-19T00:35:41.114Z,30.70
2023-02-19T00:36:41.128Z,31.00
2023-02-19T00:37:41.107Z,31.20
2023-02-19T00:38:41.108Z,40.10
2023-02-19T00:39:41.104Z,31.10
2023-02-19T00:40:41.170Z,31.00
2023-02-19T00:41:41.104Z,31.00
2023-02-19T00:42:41.093Z,31.60
2023-02-19T00:43:41.097Z,30.90
2023-02-19T00:44:41.090Z,31.40
2023-02-19T00:45:41.084Z,31.00
2023-02-19T00:46:41.194Z,31.30
2023-02-19T00:47:41.081Z,31.00
2023-02-19T00:48:41.076Z,31.60
2023-02-19T00:49:41.069Z,30.60
2023-02-19T00:50:41.094Z,31.10
2023-02-19T00:51:41.068Z,30.00
2023-02-19T00:52:41.064Z,30.50
2023-02-19T00:53:41.067Z,30.70
2023-02-19T00:54:41.085Z,30.70
2023-02-19T00:55:41.053Z,30.90
2023-02-19T00:56:41.055Z,30.00
2023-02-19T00:57:41.052Z,30.70
2023-02-19T00:58:41.047Z,30.80
2023-02-19T00:59:41.043Z,30.60
2023-02-19T01:00:41.045Z,30.40
2023-02-19T01:01:41.115Z,30.00
2023-02-19T01:02:41.040Z,28.80
2023-02-19T01:03:41.042Z,29.30
2023-02-19T01:04:41.066Z,29.80
2023-02-19T01:05:41.025Z,29.60
2023-02-19T01:06:41.038Z,29.90
2023-02-19T01:07:41.011Z,30.10
2023-02-19T01:08:41.009Z,30.00
2023-02-19T01:09:41.004Z,29.50
2023-02-19T01:10:41.004Z,29.20
2023-02-19T01:11:40.999Z,28.60
2023-02-19T01:12:41.006Z,29.10
2023-02-19T01:13:40.993Z,29.70
2023-02-19T01:14:40.994Z,30.20
2023-02-19T01:15:40.980Z,30.70
2023-02-19T01:16:40.985Z,30.40
2023-02-19T01:17:40.979Z,31.00
2023-02-19T01:18:40.985Z,31.20
2023-02-19T01:19:40.970Z,30.80
2023-02-19T01:20:40.973Z,30.60
2023-02-19T01:21:40.967Z,31.00
2023-02-19T01:22:40.986Z,30.60
2023-02-19T01:23:40.982Z,30.60
2023-02-19T01:24:40.958Z,30.40
2023-02-19T01:25:40.959Z,30.90
2023-02-19T01:26:40.952Z,30.30
2023-02-19T01:27:40.941Z,30.40
2023-02-19T01:28:40.944Z,30.20
2023-02-19T01:29:40.950Z,30.30
2023-02-19T01:30:40.937Z,30.10
2023-02-19T01:31:41.085Z,30.10
2023-02-19T01:32:40.928Z,30.10
2023-02-19T01:33:40.933Z,30.30
2023-02-19T01:34:40.929Z,31.10
2023-02-19T01:35:40.922Z,31.20
2023-02-19T01:36:40.922Z,30.00
2023-02-19T01:37:40.911Z,30.90
2023-02-19T01:38:40.937Z,30.60
2023-02-19T01:39:40.909Z,30.80
2023-02-19T01:40:40.906Z,35.60
2023-02-19T01:41:40.914Z,34.10
2023-02-19T01:42:40.903Z,33.80
2023-02-19T01:43:40.893Z,43.40
2023-02-19T01:44:40.897Z,51.60
2023-02-19T01:45:40.886Z,53.50
2023-02-19T01:46:40.940Z,58.40
2023-02-19T01:47:40.876Z,58.50
2023-02-19T01:48:40.880Z,54.50
2023-02-19T01:49:40.876Z,53.00
2023-02-19T01:50:40.877Z,52.30
2023-02-19T01:51:40.866Z,56.70
2023-02-19T01:52:40.875Z,56.20
2023-02-19T01:53:40.868Z,54.60
2023-02-19T01:54:40.894Z,55.30
2023-02-19T01:55:40.855Z,55.00
2023-02-19T01:56:40.853Z,54.80
2023-02-19T01:57:40.848Z,54.20
2023-02-19T01:58:40.853Z,53.60
2023-02-19T01:59:40.847Z,53.50
2023-02-19T02:00:40.878Z,52.20
2023-02-19T02:01:41.007Z,53.20
2023-02-19T02:02:40.837Z,51.60
2023-02-19T02:03:40.840Z,51.60
2023-02-19T02:04:40.833Z,52.20
2023-02-19T02:05:40.826Z,51.80
2023-02-19T02:06:40.825Z,52.50
2023-02-19T02:07:40.824Z,53.10
2023-02-19T02:08:40.819Z,53.20
2023-02-19T02:09:40.816Z,52.20
2023-02-19T02:10:40.835Z,53.60
2023-02-19T02:11:40.808Z,52.70
2023-02-19T02:12:40.811Z,52.20
2023-02-19T02:13:40.808Z,52.40
2023-02-19T02:14:40.800Z,53.50
2023-02-19T02:15:40.799Z,53.00
2023-02-19T02:16:40.794Z,52.30
2023-02-19T02:17:40.785Z,53.20
2023-02-19T02:18:40.792Z,51.40
2023-02-19T02:19:40.781Z,50.50
2023-02-19T02:20:40.784Z,50.10
2023-02-19T02:21:40.783Z,49.90
2023-02-19T02:22:40.775Z,50.70
2023-02-19T02:23:40.767Z,49.00
2023-02-19T02:24:40.766Z,50.50
2023-02-19T02:25:40.761Z,48.70
2023-02-19T02:26:40.782Z,50.10
2023-02-19T02:27:40.756Z,49.70
2023-02-19T02:28:40.757Z,50.60
2023-02-19T02:29:40.754Z,51.30
2023-02-19T02:30:40.751Z,51.60
2023-02-19T02:31:40.851Z,50.50
2023-02-19T02:32:40.745Z,51.00
2023-02-19T02:33:40.734Z,49.60
2023-02-19T02:34:40.738Z,51.40
2023-02-19T02:35:40.730Z,49.60
2023-02-19T02:36:40.733Z,49.80
2023-02-19T02:37:40.725Z,49.30
2023-02-19T02:38:40.726Z,51.00
2023-02-19T02:39:40.715Z,50.90
2023-02-19T02:40:40.718Z,50.90
2023-02-19T02:41:40.708Z,50.30
2023-02-19T02:42:40.713Z,51.80
2023-02-19T02:43:40.702Z,51.80
2023-02-19T02:44:40.708Z,51.50
2023-02-19T02:45:40.739Z,51.30
2023-02-19T02:46:40.699Z,51.00
2023-02-19T02:47:40.690Z,50.40
2023-02-19T02:48:40.694Z,49.70
2023-02-19T02:49:40.685Z,50.80
2023-02-19T02:50:40.695Z,51.10
2023-02-19T02:51:40.676Z,51.40
2023-02-19T02:52:40.689Z,50.90
2023-02-19T02:53:40.673Z,49.60
2023-02-19T02:54:40.672Z,49.80
2023-02-19T02:55:40.667Z,49.90
2023-02-19T02:56:40.665Z,52.60
2023-02-19T02:57:40.658Z,52.60
2023-02-19T02:58:40.661Z,52.80
2023-02-19T02:59:40.654Z,53.70
2023-02-19T03:00:40.658Z,53.10
2023-02-19T03:01:40.642Z,52.50
2023-02-19T03:02:40.646Z,52.60
2023-02-19T03:03:40.641Z,52.60
2023-02-19T03:04:40.636Z,51.20
2023-02-19T03:05:40.634Z,50.50
2023-02-19T03:06:40.630Z,50.60
2023-02-19T03:07:40.621Z,50.60
2023-02-19T03:08:40.623Z,51.20
2023-02-19T03:09:40.713Z,51.20
2023-02-19T03:10:40.614Z,50.20
2023-02-19T03:11:40.609Z,49.30
2023-02-19T03:12:40.605Z,49.20
2023-02-19T03:13:40.602Z,51.90
2023-02-19T03:14:40.600Z,52.70
2023-02-19T03:15:40.596Z,51.50
2023-02-19T03:16:42.737Z,52.30
2023-02-19T03:17:40.608Z,50.50
2023-02-19T03:18:40.606Z,51.20
2023-02-19T03:19:40.580Z,51.60
2023-02-19T03:20:40.588Z,51.10
2023-02-19T03:21:40.576Z,49.90
2023-02-19T03:22:40.577Z,50.70
2023-02-19T03:23:40.569Z,50.20
2023-02-19T03:24:40.573Z,49.80
2023-02-19T03:25:40.575Z,50.10
2023-02-19T03:26:40.572Z,50.30
2023-02-19T03:27:40.557Z,50.70
2023-02-19T03:28:40.551Z,50.50
2023-02-19T03:29:40.560Z,51.10
2023-02-19T03:30:40.555Z,51.20
2023-02-19T03:31:40.642Z,49.70
2023-02-19T03:32:40.538Z,49.90
2023-02-19T03:33:40.530Z,49.20
2023-02-19T03:34:40.531Z,49.90
2023-02-19T03:35:40.526Z,50.20
2023-02-19T03:36:40.523Z,49.50
2023-02-19T03:37:40.517Z,49.30
2023-02-19T03:38:40.519Z,49.50
2023-02-19T03:39:40.514Z,48.90
2023-02-19T03:40:40.514Z,50.80
2023-02-19T03:41:40.508Z,50.00
2023-02-19T03:42:40.505Z,50.50
2023-02-19T03:43:40.500Z,50.90
2023-02-19T03:44:40.496Z,48.80
2023-02-19T03:45:40.508Z,49.40
2023-02-19T03:46:40.492Z,50.10
2023-02-19T03:47:40.483Z,49.20
2023-02-19T03:48:40.486Z,48.80
2023-02-19T03:49:40.484Z,48.90
2023-02-19T03:50:40.474Z,47.10
2023-02-19T03:51:40.472Z,46.90
2023-02-19T03:52:40.469Z,47.30
2023-02-19T03:53:40.469Z,46.80
2023-02-19T03:54:40.469Z,46.40
2023-02-19T03:55:40.455Z,44.50
2023-02-19T03:56:40.464Z,47.00
2023-02-19T03:57:40.460Z,46.90
2023-02-19T03:58:40.452Z,46.30
2023-02-19T03:59:40.447Z,45.00
2023-02-19T04:00:40.446Z,46.40
2023-02-19T04:01:40.438Z,46.30
2023-02-19T04:02:40.437Z,43.60
2023-02-19T04:03:40.431Z,44.90
2023-02-19T04:04:40.455Z,43.80
2023-02-19T04:05:40.424Z,44.10
2023-02-19T04:06:40.423Z,43.50
2023-02-19T04:07:40.419Z,46.10
2023-02-19T04:08:40.417Z,44.20
2023-02-19T04:09:40.409Z,44.00
2023-02-19T04:10:40.410Z,43.50
2023-02-19T04:11:40.414Z,43.80
2023-02-19T04:12:40.402Z,42.00
2023-02-19T04:13:40.397Z,36.10
2023-02-19T04:14:40.393Z,33.40
2023-02-19T04:15:40.391Z,32.90
2023-02-19T04:16:40.485Z,31.90
2023-02-19T04:17:40.384Z,33.20
2023-02-19T04:18:40.376Z,32.40
2023-02-19T04:19:40.383Z,32.60
2023-02-19T04:20:40.379Z,33.70
2023-02-19T04:21:40.368Z,33.10
2023-02-19T04:22:40.364Z,33.00
2023-02-19T04:23:40.370Z,32.70
2023-02-19T04:24:40.358Z,31.70
2023-02-19T04:25:40.354Z,32.90
2023-02-19T04:26:40.349Z,32.60
2023-02-19T04:27:40.351Z,32.10
2023-02-19T04:28:40.339Z,33.10
2023-02-19T04:29:40.338Z,33.40
2023-02-19T04:30:40.450Z,32.90
2023-02-19T04:31:40.339Z,33.40
2023-02-19T04:32:40.327Z,32.40
2023-02-19T04:33:40.321Z,31.20
2023-02-19T04:34:40.318Z,32.00
2023-02-19T04:35:40.316Z,31.70
2023-02-19T04:36:40.305Z,32.20
2023-02-19T04:37:40.301Z,31.80
2023-02-19T04:38:40.294Z,32.20
2023-02-19T04:39:40.295Z,31.90
2023-02-19T04:40:40.300Z,32.40
2023-02-19T04:41:40.286Z,32.70
2023-02-19T04:42:40.284Z,31.40
2023-02-19T04:43:40.278Z,31.60
2023-02-19T04:44:40.274Z,31.30
2023-02-19T04:45:40.267Z,31.30
2023-02-19T04:46:42.716Z,31.40
2023-02-19T04:47:40.261Z,32.20
2023-02-19T04:48:40.259Z,31.80
2023-02-19T04:49:40.260Z,30.90
2023-02-19T04:50:40.253Z,31.10
2023-02-19T04:51:40.248Z,31.60
2023-02-19T04:52:40.262Z,31.40
2023-02-19T04:53:40.241Z,30.80
2023-02-19T04:54:40.236Z,31.50
2023-02-19T04:55:40.252Z,30.60
2023-02-19T04:56:40.229Z,30.20
2023-02-19T04:57:40.223Z,31.00
2023-02-19T04:58:40.218Z,30.90
2023-02-19T04:59:40.218Z,30.00
2023-02-19T05:00:40.208Z,30.50
2023-02-19T05:01:40.248Z,30.50
2023-02-19T05:02:40.204Z,30.80
2023-02-19T05:03:40.193Z,30.40
2023-02-19T05:04:40.258Z,30.40
2023-02-19T05:05:40.188Z,31.30
2023-02-19T05:06:40.182Z,31.40
2023-02-19T05:07:40.185Z,31.00
2023-02-19T05:08:40.189Z,30.70
2023-02-19T05:09:40.183Z,31.00
2023-02-19T05:10:40.171Z,31.00
2023-02-19T05:11:40.169Z,30.50
2023-02-19T05:12:40.164Z,30.30
2023-02-19T05:13:40.203Z,29.20
2023-02-19T05:14:40.155Z,30.30
2023-02-19T05:15:40.174Z,30.40
2023-02-19T05:16:40.145Z,29.80
2023-02-19T05:17:40.148Z,30.50
2023-02-19T05:18:40.138Z,30.70
2023-02-19T05:19:40.138Z,30.70
2023-02-19T05:20:40.134Z,31.90
2023-02-19T05:21:40.128Z,31.70
2023-02-19T05:22:40.122Z,31.60
2023-02-19T05:23:40.120Z,31.30
2023-02-19T05:24:40.117Z,30.90
2023-02-19T05:25:40.111Z,30.90
2023-02-19T05:26:40.109Z,30.80
2023-02-19T05:27:40.109Z,30.50
2023-02-19T05:28:40.107Z,31.80
2023-02-19T05:29:40.163Z,31.40
2023-02-19T05:30:40.089Z,30.40
2023-02-19T05:31:40.247Z,31.20
2023-02-19T05:32:40.103Z,30.40
2023-02-19T05:33:40.081Z,31.10
2023-02-19T05:34:40.078Z,31.10
2023-02-19T05:35:40.094Z,30.70
2023-02-19T05:36:40.065Z,30.50
2023-02-19T05:37:40.065Z,31.00
2023-02-19T05:38:40.057Z,30.80
2023-02-19T05:39:40.054Z,31.20
2023-02-19T05:40:40.052Z,30.30
2023-02-19T05:41:40.050Z,30.60
2023-02-19T05:42:40.040Z,30.80
2023-02-19T05:43:40.047Z,30.20
2023-02-19T05:44:40.035Z,30.10
2023-02-19T05:45:40.036Z,30.00
2023-02-19T05:46:40.076Z,31.00
2023-02-19T05:47:40.024Z,31.10
2023-02-19T05:48:40.034Z,31.80
2023-02-19T05:49:40.021Z,30.80
2023-02-19T05:50:40.119Z,30.70
2023-02-19T05:51:40.008Z,31.50
2023-02-19T05:52:40.006Z,30.70
2023-02-19T05:53:40.018Z,31.00
2023-02-19T05:54:39.999Z,31.30
2023-02-19T05:55:40.000Z,31.10
2023-02-19T05:56:39.990Z,31.00
2023-02-19T05:57:42.514Z,31.10
2023-02-19T05:58:39.979Z,30.70
2023-02-19T05:59:39.981Z,30.40
2023-02-19T06:00:39.970Z,31.00
2023-02-19T06:01:39.970Z,31.10
2023-02-19T06:02:40.030Z,30.70
2023-02-19T06:03:39.999Z,32.00
2023-02-19T06:04:39.957Z,31.20
2023-02-19T06:05:39.955Z,30.00
2023-02-19T06:06:39.943Z,30.60
2023-02-19T06:07:39.960Z,29.50
2023-02-19T06:08:39.953Z,29.40
2023-02-19T06:09:39.940Z,29.20
2023-02-19T06:10:39.931Z,29.40
2023-02-19T06:11:39.934Z,29.70
2023-02-19T06:12:39.922Z,30.60
2023-02-19T06:13:39.923Z,31.00
2023-02-19T06:14:39.913Z,30.60
2023-02-19T06:15:39.915Z,29.60
2023-02-19T06:16:39.907Z,29.10
2023-02-19T06:17:39.905Z,30.10
2023-02-19T06:18:39.897Z,29.60
2023-02-19T06:19:39.897Z,30.40
2023-02-19T06:20:39.890Z,30.50
2023-02-19T06:21:39.893Z,30.00
2023-02-19T06:22:39.887Z,28.70
2023-02-19T06:23:39.882Z,29.60
2023-02-19T06:24:39.871Z,30.10
2023-02-19T06:25:39.964Z,30.50
2023-02-19T06:26:39.866Z,30.80
2023-02-19T06:27:39.881Z,29.70
2023-02-19T06:28:39.861Z,28.70
2023-02-19T06:29:39.858Z,29.50
2023-02-19T06:30:39.853Z,30.60
2023-02-19T06:31:40.050Z,30.00
2023-02-19T06:32:39.847Z,30.10
2023-02-19T06:33:39.843Z,29.70
2023-02-19T06:34:39.835Z,30.10
2023-02-19T06:35:39.835Z,29.50
2023-02-19T06:36:39.831Z,30.30
2023-02-19T06:37:39.827Z,29.00
2023-02-19T06:38:39.825Z,29.50
2023-02-19T06:39:39.833Z,29.90
2023-02-19T06:40:39.830Z,29.60
2023-02-19T06:41:39.815Z,29.70
2023-02-19T06:42:39.811Z,29.80
2023-02-19T06:43:39.812Z,30.00
2023-02-19T06:44:39.799Z,30.00
2023-02-19T06:45:39.800Z,29.80
2023-02-19T06:46:39.861Z,29.90
2023-02-19T06:47:39.788Z,29.10
2023-02-19T06:48:39.789Z,29.80
2023-02-19T06:49:39.781Z,28.90
2023-02-19T06:50:39.776Z,29.10
2023-02-19T06:51:39.773Z,29.00
2023-02-19T06:52:39.768Z,28.90
2023-02-19T06:53:39.781Z,28.70
2023-02-19T06:54:39.764Z,28.60
2023-02-19T06:55:39.758Z,28.60
2023-02-19T06:56:39.774Z,29.10
2023-02-19T06:57:39.748Z,29.40
2023-02-19T06:58:39.745Z,29.20
2023-02-19T06:59:39.738Z,29.70
2023-02-19T07:00:39.760Z,29.70
2023-02-19T07:01:39.737Z,30.90
2023-02-19T07:02:39.729Z,31.10
2023-02-19T07:03:39.729Z,30.80
2023-02-19T07:04:39.722Z,30.80
2023-02-19T07:05:39.719Z,30.50
2023-02-19T07:06:39.713Z,32.10
2023-02-19T07:07:39.731Z,30.20
2023-02-19T07:08:39.699Z,32.00
2023-02-19T07:09:39.696Z,31.40
2023-02-19T07:10:39.689Z,31.70
2023-02-19T07:11:39.692Z,32.50
2023-02-19T07:12:39.684Z,31.90
2023-02-19T07:13:39.687Z,31.60
2023-02-19T07:14:39.677Z,33.00
2023-02-19T07:15:39.676Z,32.10
2023-02-19T07:16:39.733Z,31.80
2023-02-19T07:17:39.663Z,32.10
2023-02-19T07:18:39.664Z,32.50
2023-02-19T07:19:39.657Z,30.90
2023-02-19T07:20:39.654Z,31.40
2023-02-19T07:21:39.647Z,31.80
2023-02-19T07:22:39.640Z,31.30
2023-02-19T07:23:39.665Z,32.90
2023-02-19T07:24:39.636Z,33.10
2023-02-19T07:25:39.715Z,31.50
2023-02-19T07:26:39.625Z,32.30
2023-02-19T07:27:39.625Z,31.00
2023-02-19T07:28:39.625Z,30.80
2023-02-19T07:29:39.615Z,30.90
2023-02-19T07:30:39.604Z,29.60
2023-02-19T07:31:39.723Z,31.90
2023-02-19T07:32:39.604Z,31.00
2023-02-19T07:33:39.604Z,31.80
2023-02-19T07:34:39.592Z,30.70
2023-02-19T07:35:39.595Z,30.70
2023-02-19T07:36:39.589Z,31.30
2023-02-19T07:37:39.588Z,31.30
2023-02-19T07:38:39.580Z,31.80
2023-02-19T07:39:39.584Z,31.10
2023-02-19T07:40:39.571Z,32.30
2023-02-19T07:41:39.575Z,31.50
2023-02-19T07:42:39.571Z,31.00
2023-02-19T07:43:39.565Z,31.00
2023-02-19T07:44:39.557Z,31.80
2023-02-19T07:45:39.600Z,31.70
2023-02-19T07:46:39.557Z,31.50
2023-02-19T07:47:39.553Z,30.70
2023-02-19T07:48:39.564Z,31.40
2023-02-19T07:49:39.542Z,31.10
2023-02-19T07:50:39.543Z,31.60
2023-02-19T07:51:39.537Z,31.30
2023-02-19T07:52:39.541Z,31.00
2023-02-19T07:53:39.534Z,30.70
2023-02-19T07:54:39.528Z,30.20
2023-02-19T07:55:39.521Z,30.20
2023-02-19T07:56:39.524Z,30.40
2023-02-19T07:57:39.526Z,29.80
2023-02-19T07:58:39.504Z,31.00
2023-02-19T07:59:39.512Z,30.10
2023-02-19T08:00:39.511Z,29.90
2023-02-19T08:01:39.499Z,30.50
2023-02-19T08:02:39.509Z,30.30
2023-02-19T08:03:39.569Z,29.60
2023-02-19T08:04:39.492Z,30.00
2023-02-19T08:05:39.484Z,30.80
2023-02-19T08:06:39.493Z,29.50
2023-02-19T08:07:39.484Z,29.80
2023-02-19T08:08:39.489Z,29.50
2023-02-19T08:09:39.492Z,29.40
2023-02-19T08:10:39.462Z,29.80
2023-02-19T08:11:39.468Z,30.30
2023-02-19T08:12:39.464Z,31.20
2023-02-19T08:13:39.458Z,30.80
2023-02-19T08:14:39.469Z,30.10
2023-02-19T08:15:39.445Z,31.00
2023-02-19T08:16:43.336Z,31.30
2023-02-19T08:17:39.450Z,31.00
2023-02-19T08:18:39.431Z,30.20
2023-02-19T08:19:39.439Z,28.80
2023-02-19T08:20:39.442Z,28.40
2023-02-19T08:21:39.431Z,28.70
2023-02-19T08:22:39.422Z,29.60
2023-02-19T08:23:39.421Z,28.80
2023-02-19T08:24:39.423Z,28.80
2023-02-19T08:25:39.416Z,29.70
2023-02-19T08:26:39.409Z,29.50
2023-02-19T08:27:39.410Z,28.90
2023-02-19T08:28:39.409Z,28.80
2023-02-19T08:29:39.397Z,29.00
2023-02-19T08:30:39.498Z,28.30
2023-02-19T08:31:39.581Z,27.70
2023-02-19T08:32:39.418Z,27.30
2023-02-19T08:33:39.385Z,26.20
2023-02-19T08:34:39.390Z,27.10
2023-02-19T08:35:39.382Z,26.50
2023-02-19T08:36:39.381Z,25.70
2023-02-19T08:37:39.377Z,25.30
2023-02-19T08:38:39.378Z,26.10
2023-02-19T08:39:39.375Z,25.10
2023-02-19T08:40:39.384Z,24.00
2023-02-19T08:41:39.380Z,24.30
2023-02-19T08:42:39.362Z,24.00
2023-02-19T08:43:39.361Z,23.90
2023-02-19T08:44:39.367Z,24.70
2023-02-19T08:45:39.363Z,24.40
2023-02-19T08:46:39.353Z,23.90
2023-02-19T08:47:39.352Z,23.80
2023-02-19T08:48:39.354Z,23.20
2023-02-19T08:49:39.337Z,23.40
2023-02-19T08:50:39.338Z,23.00
2023-02-19T08:51:39.332Z,23.00
2023-02-19T08:52:39.340Z,22.90
2023-02-19T08:53:39.344Z,23.00
2023-02-19T08:54:39.325Z,21.90
2023-02-19T08:55:39.330Z,21.80
2023-02-19T08:56:39.328Z,21.20
2023-02-19T08:57:39.331Z,21.00
2023-02-19T08:58:39.323Z,20.90
2023-02-19T08:59:39.317Z,20.20
2023-02-19T09:00:39.314Z,20.80
2023-02-19T09:01:39.397Z,19.40
2023-02-19T09:02:39.309Z,19.60
2023-02-19T09:03:39.304Z,19.10
2023-02-19T09:04:39.303Z,18.70
2023-02-19T09:05:39.301Z,18.00
2023-02-19T09:06:40.143Z,17.60
2023-02-19T09:07:39.299Z,17.00
2023-02-19T09:08:39.300Z,17.00
2023-02-19T09:09:39.296Z,16.80
2023-02-19T09:10:39.289Z,16.80
2023-02-19T09:11:39.293Z,16.40
2023-02-19T09:12:39.289Z,16.20
2023-02-19T09:13:39.286Z,16.00
2023-02-19T09:14:39.288Z,15.80
2023-02-19T09:15:39.400Z,16.00
2023-02-19T09:16:39.305Z,15.90
2023-02-19T09:17:39.276Z,15.70
2023-02-19T09:18:39.293Z,15.40
2023-02-19T09:19:39.281Z,16.30
2023-02-19T09:20:39.279Z,16.40
2023-02-19T09:21:39.284Z,16.60
2023-02-19T09:22:39.281Z,16.70
2023-02-19T09:23:39.285Z,17.20
2023-02-19T09:24:39.272Z,16.90
2023-02-19T09:25:39.283Z,17.40
2023-02-19T09:26:39.282Z,16.60
2023-02-19T09:27:39.265Z,16.50
2023-02-19T09:28:39.272Z,17.70
2023-02-19T09:29:39.270Z,17.20
2023-02-19T09:30:39.279Z,16.70
2023-02-19T09:31:39.441Z,16.90
2023-02-19T09:32:39.262Z,17.10
2023-02-19T09:33:39.254Z,16.50
2023-02-19T09:34:39.269Z,16.70
2023-02-19T09:35:39.257Z,16.40
2023-02-19T09:36:39.253Z,16.90
2023-02-19T09:37:39.257Z,16.30
2023-02-19T09:38:39.250Z,15.70
2023-02-19T09:39:39.263Z,15.90
2023-02-19T09:40:39.251Z,16.50
2023-02-19T09:41:39.247Z,16.30
2023-02-19T09:42:39.242Z,16.70
2023-02-19T09:43:39.247Z,16.50
2023-02-19T09:44:39.245Z,16.00
2023-02-19T09:45:39.240Z,15.40
2023-02-19T09:46:39.237Z,16.20
2023-02-19T09:47:39.292Z,16.60
2023-02-19T09:48:39.243Z,16.40
2023-02-19T09:49:39.237Z,15.60
2023-02-19T09:50:39.236Z,16.20
2023-02-19T09:51:39.239Z,16.00
2023-02-19T09:52:39.238Z,16.40
2023-02-19T09:53:39.221Z,16.60
2023-02-19T09:54:39.242Z,15.90
2023-02-19T09:55:39.218Z,15.80
2023-02-19T09:56:39.218Z,15.80
2023-02-19T09:57:39.212Z,15.80
2023-02-19T09:58:39.214Z,15.10
2023-02-19T09:59:39.210Z,15.10
2023-02-19T10:00:39.210Z,15.00
2023-02-19T10:01:39.269Z,14.90
2023-02-19T10:02:39.208Z,15.20
2023-02-19T10:03:39.219Z,15.00
2023-02-19T10:04:39.203Z,14.70
2023-02-19T10:05:39.198Z,14.70
2023-02-19T10:06:39.204Z,14.60
2023-02-19T10:07:39.201Z,14.90
2023-02-19T10:08:39.208Z,14.90
2023-02-19T10:09:39.187Z,15.00
2023-02-19T10:10:39.193Z,14.70
2023-02-19T10:11:39.183Z,15.10
2023-02-19T10:12:39.189Z,14.30
2023-02-19T10:13:39.180Z,14.20
2023-02-19T10:14:39.189Z,14.20
2023-02-19T10:15:39.213Z,13.40
2023-02-19T10:16:39.187Z,13.10
2023-02-19T10:17:39.174Z,13.60
2023-02-19T10:18:39.174Z,13.50
2023-02-19T10:19:39.173Z,13.70
2023-02-19T10:20:39.185Z,13.60
2023-02-19T10:21:39.169Z,13.80
2023-02-19T10:22:39.178Z,13.50
2023-02-19T10:23:39.169Z,13.30
2023-02-19T10:24:39.170Z,13.60
2023-02-19T10:25:39.159Z,13.70
2023-02-19T10:26:39.163Z,13.40
2023-02-19T10:27:39.162Z,13.20
2023-02-19T10:28:39.170Z,13.20
2023-02-19T10:29:39.161Z,13.50
2023-02-19T10:30:39.160Z,13.20
2023-02-19T10:31:39.228Z,13.40
2023-02-19T10:32:39.156Z,14.20
2023-02-19T10:33:39.146Z,13.80
2023-02-19T10:34:39.151Z,13.90
2023-02-19T10:35:39.154Z,13.60
2023-02-19T10:36:39.180Z,14.30
2023-02-19T10:37:39.147Z,14.20
2023-02-19T10:38:39.148Z,14.20
2023-02-19T10:39:39.138Z,13.40
2023-02-19T10:40:39.150Z,13.40
2023-02-19T10:41:39.135Z,13.50
2023-02-19T10:42:39.145Z,13.50
2023-02-19T10:43:39.135Z,13.30
2023-02-19T10:44:39.132Z,13.20
2023-02-19T10:45:39.128Z,13.80
2023-02-19T10:46:39.161Z,13.30
2023-02-19T10:47:39.129Z,13.30
2023-02-19T10:48:39.130Z,13.10
2023-02-19T10:49:39.140Z,13.40
2023-02-19T10:50:39.135Z,13.60
2023-02-19T10:51:39.127Z,13.70
2023-02-19T10:52:39.130Z,13.40
2023-02-19T10:53:39.120Z,13.90
2023-02-19T10:54:39.123Z,13.40
2023-02-19T10:55:39.118Z,13.20
2023-02-19T10:56:39.119Z,14.00
2023-02-19T10:57:39.117Z,13.40
2023-02-19T10:58:39.117Z,13.00
2023-02-19T10:59:39.113Z,13.40
2023-02-19T11:00:39.121Z,13.50
2023-02-19T11:01:39.114Z,13.00
2023-02-19T11:02:39.115Z,12.30
2023-02-19T11:03:39.126Z,12.10
2023-02-19T11:04:39.187Z,12.30
2023-02-19T11:05:39.102Z,11.70
2023-02-19T11:06:39.108Z,12.00
2023-02-19T11:07:39.106Z,11.80
2023-02-19T11:08:39.101Z,12.40
2023-02-19T11:09:39.103Z,12.30
2023-02-19T11:10:39.099Z,11.90
2023-02-19T11:11:39.104Z,11.50
2023-02-19T11:12:39.099Z,11.60
2023-02-19T11:13:39.097Z,11.70
2023-02-19T11:14:39.099Z,11.30
2023-02-19T11:15:39.111Z,10.40
2023-02-19T11:16:39.109Z,12.20
2023-02-19T11:17:39.090Z,11.50
2023-02-19T11:18:39.100Z,11.40
2023-02-19T11:19:39.118Z,12.10
2023-02-19T11:20:39.093Z,12.30
2023-02-19T11:21:39.086Z,11.90
2023-02-19T11:22:39.084Z,12.20
2023-02-19T11:23:39.088Z,12.40
2023-02-19T11:24:39.088Z,12.10
2023-02-19T11:25:39.084Z,12.60
2023-02-19T11:26:39.091Z,12.50
2023-02-19T11:27:39.079Z,12.50
2023-02-19T11:28:39.137Z,12.70
2023-02-19T11:29:39.077Z,12.50
2023-02-19T11:30:39.172Z,12.60
2023-02-19T11:31:39.143Z,12.00
2023-02-19T11:32:39.080Z,12.00
2023-02-19T11:33:39.072Z,12.10
2023-02-19T11:34:39.078Z,12.00
2023-02-19T11:35:39.072Z,12.30
2023-02-19T11:36:39.073Z,12.30
2023-02-19T11:37:39.072Z,11.90
2023-02-19T11:38:39.073Z,12.20
2023-02-19T11:39:39.068Z,12.20
2023-02-19T11:40:39.076Z,12.60
2023-02-19T11:41:39.064Z,12.70
2023-02-19T11:42:39.078Z,12.60
2023-02-19T11:43:39.070Z,13.10
2023-02-19T11:44:39.067Z,12.80
2023-02-19T11:45:39.064Z,13.10
2023-02-19T11:46:39.191Z,13.50
2023-02-19T11:47:39.067Z,13.20
2023-02-19T11:48:39.061Z,12.90
2023-02-19T11:49:39.057Z,13.40
2023-02-19T11:50:39.055Z,13.50
2023-02-19T11:51:39.055Z,13.10
2023-02-19T11:52:39.064Z,13.50
2023-02-19T11:53:39.051Z,13.70
2023-02-19T11:54:39.053Z,13.60
2023-02-19T11:55:39.045Z,13.80
2023-02-19T11:56:39.057Z,13.60
2023-02-19T11:57:39.067Z,13.10
2023-02-19T11:58:39.049Z,13.20
2023-02-19T11:59:39.050Z,13.50
2023-02-19T12:00:39.040Z,13.00
2023-02-19T12:01:39.042Z,13.40
2023-02-19T12:02:39.043Z,13.20
2023-02-19T12:03:39.036Z,14.00
2023-02-19T12:04:39.043Z,13.10
2023-02-19T12:05:39.034Z,13.20
2023-02-19T12:06:39.038Z,13.50
2023-02-19T12:07:39.044Z,13.00
2023-02-19T12:08:39.047Z,13.00
2023-02-19T12:09:39.031Z,13.10
2023-02-19T12:10:39.028Z,13.20
2023-02-19T12:11:39.026Z,12.50
2023-02-19T12:12:39.074Z,13.00
2023-02-19T12:13:39.024Z,12.60
2023-02-19T12:14:39.022Z,12.90
2023-02-19T12:15:39.019Z,13.40
2023-02-19T12:16:39.060Z,13.50
2023-02-19T12:17:39.027Z,13.00
2023-02-19T12:18:39.016Z,12.80
2023-02-19T12:19:39.016Z,12.90
2023-02-19T12:20:39.021Z,13.20
2023-02-19T12:21:39.013Z,13.30
2023-02-19T12:22:39.017Z,13.20
2023-02-19T12:23:39.016Z,13.30
2023-02-19T12:24:39.019Z,13.00
2023-02-19T12:25:39.010Z,13.20
2023-02-19T12:26:39.017Z,13.00
2023-02-19T12:27:39.005Z,12.50
2023-02-19T12:28:39.008Z,12.60
2023-02-19T12:29:39.004Z,13.10
2023-02-19T12:30:39.181Z,12.90
2023-02-19T12:31:39.016Z,12.30
2023-02-19T12:32:39.008Z,13.80
2023-02-19T12:33:38.997Z,13.30
2023-02-19T12:34:38.999Z,13.80
2023-02-19T12:35:38.995Z,13.50
2023-02-19T12:36:38.997Z,13.80
2023-02-19T12:37:38.991Z,13.90
2023-02-19T12:38:38.993Z,13.80
2023-02-19T12:39:38.992Z,12.60
2023-02-19T12:40:38.994Z,13.40
2023-02-19T12:41:38.988Z,13.10
2023-02-19T12:42:38.989Z,12.80
2023-02-19T12:43:38.989Z,13.30
2023-02-19T12:44:38.984Z,12.80
2023-02-19T12:45:39.013Z,12.90
2023-02-19T12:46:38.988Z,12.60
2023-02-19T12:47:38.983Z,13.00
2023-02-19T12:48:38.999Z,12.70
2023-02-19T12:49:38.976Z,12.80
2023-02-19T12:50:38.979Z,12.70
2023-02-19T12:51:38.983Z,12.70
2023-02-19T12:52:38.976Z,13.10